Terminal Aerodrome Forecast
Issued by NWS

Home | Current Version | Previous Version | Text Only | Print | Product List | Glossary Off
Versions: 1 2 3 4 5 6 7 8 9 10 11 12

493
FTUS43 KMPX 220520
TAFRNH
TAF
KRNH 220520Z 2206/2306 15007KT P6SM VCTS SCT050CB BKN120
     FM220900 27005KT P6SM SCT120
     FM221100 34005KT P6SM -SHRA BKN050
      TEMPO 2213/2216 5SM -TSRA BKN025CB OVC050
     FM221900 VRB05KT P6SM BKN025 OVC050
     FM230000 VRB03KT P6SM BKN100=

USA.gov is the U.S. government's official web portal to all federal, state and local government web resources and services.